Relevés horaires Schaffen (Belgique)


Relevés horaires à Schaffen - Jeudi 15 Nov. 2018
Heure UTC1 Température [°C] Vent [km/h] Hum. [%] Pres.4 [hPa] Visi. [Km] Nébu. [octa] Préc.5 [mm] Cond.
2m. Res. Ros. Dir.2 Vit. Moy. Raf.3
23:00 3.4 2 2.3 SSE 5.6 -- 9.3 92 1025.7(0.6/3h) 13 -- -- --
22:00 3.3 3.3 2.4 S 3.7 -- 7.4 94 1025.7(0.8/3h) 15 -- -- --
21:00 4.5 4.5 3.3 SSE 3.7 -- 7.4 92 1025.5(0.8/3h) 19 -- -- --
20:00 5.3 5.3 4.7 SE 3.7 -- 5.6 96 1025(0.8/3h) 8 -- -- --
19:00 6.5 6.5 5.2 NNO 1.9 -- 5.6 91 1024.7(0.7/3h) 17 -- -- --
18:00 7.6 7.6 5.7 NNO 1.9 -- 7.4 88 1024.5(0.4/3h) 19 -- 0.1/12h
NA
17:00 9.8 9.8 6.1 NNO 1.9 -- 5.6 78 1024(0.0/3h) 7 -- -- Il y a une bruine faible et continue à la station au moment de l'observation
16:00 12.0 11.9 6.4 E 5.6 -- 7.4 69 1023.8(-0.4/3h) 8 -- -- --
15:00 13.8 13.8 7.0 E 3.7 -- 5.6 63 1023.8(-0.7/3h) 20 0/8 -- --
14:00 14.3 14.3 7.3 ESE 3.7 -- 5.6 63 1024(-0.9/3h) 20 0/8 -- --
13:00 14.0 14.0 6.8 NNO 1.9 -- 5.6 62 1024.2(-1.0/3h) 20 0/8 -- --
12:00 12.8 12.8 6.4 SE 3.7 -- 7.4 65 1025(0.0/3h) 20 0/8 -- --
11:00 10.9 10.9 5.8 SE 3.7 -- 7.4 71 1025(0.0/3h) 20 0/8 -- --
10:00 9.0 8.4 4.8 SE 5.6 -- 7.4 75 1025.5(0.3/3h) 20 1/8 -- --
09:00 7.0 7.0 4.7 SE 3.7 -- 5.6 85 1025.5(0.5/3h) 20 1/8 -- --
08:00 4.5 4.5 3.4 NNO 1.9 -- 3.7 93 1025.2(0.3/3h) 13 1/8 -- --
07:00 4.0 4.0 3.2 NNO 1.9 -- 5.6 95 1025.2(0.2/3h) 13 1/8 -- Une mince couche de brouillard ou de brouillard glacé en bancs est observé à la station. L'épaisseur du brouillard ne doit pas réduire la visibilité au niveau de l'oeil; le brouillard doit cependant avoir une densité telle que la visibilité apparente dans le brouillard soit inférieure à 5/8 de mille
06:00 4.1 4.1 3.3 SE 3.7 -- 5.6 95 1025(0.0/3h) 13 0/8 -- --
05:00 4.3 4.3 3.5 SE 3.7 -- 5.6 95 1025(-0.3/3h) 13 0/8 -- --
04:00 4.3 4.3 3.7 SE 3.7 -- 5.6 96 1025(-0.2/3h) 9 -- -- --
03:00 4.3 4.3 3.6 SE 3.7 -- 5.6 95 1025(-0.4/3h) 10 -- -- --
02:00 4.8 4.8 3.8 SE 3.7 -- 5.6 93 1025.2(-0.2/3h) 15 -- -- --
01:00 4.7 4.7 3.8 SE 3.7 -- 5.6 94 1025.2(-0.3/3h) 12 -- -- --
00:00 4.9 4.9 4.0 NNO 1.9 -- 7.4 94 1025.5(0.0/3h) 12 -- -- --

1 Coordinated Universal Time. Actuellement il est 03:00 locale et 02:00 UTC.

2 Le vent souffle depuis la direction indiquée vers la direction oposée.

3 Les rafales max. sont disponible 40 min après l'heure du relevé.

4 Pour les stations d'altitude (plus de 600m) le géopotentiel du niveau le plus proche de la pression obligatoire est indiqué.

5 Les stations disposant d'un diffuseur peuvent indiquer "trace". Cela signifie que des précipitations ont touchés le sol mais que la quantité est inférieure à 0.1 mm.

Récapitulatif de la journée
Température [°C] Vent [km/h] Ensoleillement4 [h] Precipitations totale5 [mm] Pression [Hpa]
Min1 Max.2 Moy.3 Max. Min Max.
4.1 14.4 0 9.3 0 h 0 min 0 1023.8 1025.7

1 Température minimale relevée entre 18:00 UTC la veille et 18:00 UTC le jour donné.

2 Température maximale relevée entre 06:00 UTC le jour donné et 06:00 UTC le lendemain.

3 Vent moyen de la journée basé sur les relevés horaires.

4 Ensoleillement en heures relevé entre 06:00 UTC la veille et 06:00 UTC le jour donné.

5 Précipitations totales tombées entre 06:00 UTC la jour donné et 06:00 UTC le lendemain.

Graphiques horaires